Time;durP1;ratioP1;P1;durP2;ratioP2;P2;SDS_P1;SDS_P2;PMS_P1;PMS_P2;Temp;Humidity;BMP_temperature;BMP_pressure;BME280_temperature;BME280_humidity;BME280_pressure;Samples;Min_cycle;Max_cycle;Signal;HPM_P1;HPM_P2
2022/10/24 00:00:12;;;;;;;;;0.00;0.00;;;;;20.16;55.24;100060.41;2118591;27;45900;-72
2022/10/24 00:01:18;;;;;;;;;0.75;0.00;;;;;20.16;55.11;100062.22;2109168;27;47193;-75
2022/10/24 00:02:19;;;;;;;;;0.75;0.00;;;;;20.14;54.66;100064.19;2108496;27;48052;-74
2022/10/24 00:03:19;;;;;;;;;1.00;1.00;;;;;20.14;54.96;100065.03;2118957;27;45242;-73
2022/10/24 00:04:19;;;;;;;;;0.00;0.00;;;;;20.13;54.90;100067.84;2111577;27;47002;-72
2022/10/24 00:05:20;;;;;;;;;1.33;1.33;;;;;20.12;55.33;100058.91;2107715;27;46409;-72
2022/10/24 00:06:21;;;;;;;;;1.33;0.00;;;;;20.13;55.34;100059.78;2116255;27;47794;-73
2022/10/24 00:07:21;;;;;;;;;1.00;1.00;;;;;20.11;55.09;100065.28;2114505;27;45698;-72
2022/10/24 00:08:21;;;;;;;;;0.33;0.33;;;;;20.11;55.54;100056.31;2108295;27;47337;-73
2022/10/24 00:09:21;;;;;;;;;2.00;1.67;;;;;20.11;55.61;100064.41;2106562;27;46215;-71
2022/10/24 00:10:22;;;;;;;;;0.67;0.67;;;;;20.11;55.52;100065.28;2121326;27;46267;-73
2022/10/24 00:11:26;;;;;;;;;0.00;0.00;;;;;20.09;55.63;100067.22;2122049;27;45531;-74
2022/10/24 00:12:26;;;;;;;;;0.50;0.00;;;;;20.11;55.52;100072.50;2122230;27;46030;-72
2022/10/24 00:13:27;;;;;;;;;0.00;0.00;;;;;20.10;55.66;100070.78;2118300;27;45923;-73
2022/10/24 00:14:28;;;;;;;;;0.00;0.00;;;;;20.09;55.24;100067.22;2120349;27;46404;-73
2022/10/24 00:15:30;;;;;;;;;2.33;1.00;;;;;20.09;55.34;100060.97;2116178;27;47831;-73
2022/10/24 00:16:30;;;;;;;;;0.00;0.00;;;;;20.06;55.48;100056.63;2119110;27;46054;-72
2022/10/24 00:17:30;;;;;;;;;0.67;0.67;;;;;20.05;55.88;100049.53;2121928;27;46391;-72
2022/10/24 00:18:31;;;;;;;;;1.33;0.33;;;;;20.05;55.57;100054.91;2120538;27;45506;-73
2022/10/24 00:19:32;;;;;;;;;4.00;1.00;;;;;20.05;55.78;100064.84;2121355;27;46939;-72
2022/10/24 00:20:32;;;;;;;;;0.00;0.00;;;;;20.05;55.75;100054.06;2116401;27;45662;-74
2022/10/24 00:21:32;;;;;;;;;0.33;0.33;;;;;20.05;55.52;100054.06;2119090;27;45623;-73
2022/10/24 00:22:33;;;;;;;;;2.00;0.00;;;;;20.03;55.93;100050.63;2119175;27;46480;-74
2022/10/24 00:23:34;;;;;;;;;1.00;1.00;;;;;20.02;55.71;100051.59;2121940;27;45878;-75
2022/10/24 00:24:34;;;;;;;;;2.50;1.00;;;;;20.01;55.68;100053.44;2114981;27;46173;-73
2022/10/24 00:25:35;;;;;;;;;0.33;0.00;;;;;20.01;55.45;100050.72;2114584;27;46639;-73
2022/10/24 00:26:35;;;;;;;;;2.33;0.67;;;;;20.01;56.13;100055.25;2121019;27;45855;-71
2022/10/24 00:27:36;;;;;;;;;4.00;1.00;;;;;19.98;56.15;100048.25;2115142;27;45891;-72
2022/10/24 00:28:37;;;;;;;;;1.00;1.00;;;;;19.97;55.72;100051.94;2119273;27;45890;-73
2022/10/24 00:29:37;;;;;;;;;0.00;0.00;;;;;19.96;56.16;100050.22;2122593;27;45585;-72
2022/10/24 00:30:37;;;;;;;;;2.00;0.33;;;;;19.96;55.51;100052.91;2116802;27;45562;-74
2022/10/24 00:31:38;;;;;;;;;0.50;0.50;;;;;19.96;55.86;100055.59;2116782;27;46531;-72
2022/10/24 00:32:38;;;;;;;;;1.00;1.00;;;;;19.96;55.75;100058.28;2113355;27;46831;-72
2022/10/24 00:33:39;;;;;;;;;1.67;0.67;;;;;19.94;55.87;100052.13;2116468;27;45844;-73
2022/10/24 00:34:40;;;;;;;;;0.00;0.00;;;;;19.94;55.89;100058.38;2113607;27;45460;-72
2022/10/24 00:35:41;;;;;;;;;1.00;1.00;;;;;19.93;56.20;100043.19;2120912;27;46418;-72
2022/10/24 00:36:41;;;;;;;;;1.25;0.75;;;;;19.92;56.40;100056.75;2120063;27;46474;-74
2022/10/24 00:37:41;;;;;;;;;0.67;0.33;;;;;19.89;56.41;100049.78;2120505;27;45109;-72
2022/10/24 00:38:42;;;;;;;;;0.00;0.00;;;;;19.87;56.41;100062.47;2117125;27;46845;-74
2022/10/24 00:39:42;;;;;;;;;0.00;0.00;;;;;19.86;55.81;100063.47;2121716;27;46466;-71
2022/10/24 00:40:43;;;;;;;;;0.33;0.33;;;;;19.86;56.32;100065.28;2117000;27;46485;-72
2022/10/24 00:41:44;;;;;;;;;0.00;0.00;;;;;19.84;56.31;100051.94;2118504;27;45147;-72
2022/10/24 00:42:44;;;;;;;;;0.67;0.33;;;;;19.85;56.18;100052.78;2114055;27;45027;-72
2022/10/24 00:43:45;;;;;;;;;0.00;0.00;;;;;19.83;56.13;100062.81;2118078;27;46076;-72
2022/10/24 00:44:48;;;;;;;;;3.00;1.33;;;;;19.81;56.53;100064.72;2119991;27;45644;-72
2022/10/24 00:45:56;;;;;;;;;1.50;1.00;;;;;19.81;56.47;100062.03;2113306;27;47036;-72
2022/10/24 00:47:06;;;;;;;;;0.75;0.75;;;;;19.80;56.25;100058.47;2120828;27;45242;-72
2022/10/24 00:48:18;;;;;;;;;0.00;0.00;;;;;19.80;56.43;100052.25;2122080;27;46498;-73
2022/10/24 00:49:24;;;;;;;;;1.75;0.75;;;;;19.78;56.55;100060.44;2119345;27;45653;-71
2022/10/24 00:50:24;;;;;;;;;0.75;0.75;;;;;19.75;56.77;100047.19;2113862;27;46133;-73
2022/10/24 00:51:31;;;;;;;;;2.33;2.33;;;;;19.75;56.46;100057.97;2117707;27;45230;-73
2022/10/24 00:52:36;;;;;;;;;2.00;1.00;;;;;19.72;56.61;100055.50;2121604;27;46706;-72
2022/10/24 00:53:41;;;;;;;;;0.75;0.75;;;;;19.71;56.33;100056.47;2116519;27;46302;-73
2022/10/24 00:54:42;;;;;;;;;1.00;0.25;;;;;19.71;56.76;100052.91;2115746;27;45736;-71
2022/10/24 00:55:46;;;;;;;;;0.50;0.00;;;;;19.69;56.19;100053.88;2117669;27;46820;-74
2022/10/24 00:57:02;;;;;;;;;0.25;0.25;;;;;19.69;56.48;100051.19;2113923;27;46665;-73
2022/10/24 00:58:04;;;;;;;;;0.00;0.00;;;;;19.68;56.35;100057.50;2119803;27;46639;-73
2022/10/24 00:59:07;;;;;;;;;2.25;0.75;;;;;19.68;56.70;100053.97;2116234;27;46058;-72
2022/10/24 01:00:18;;;;;;;;;0.00;0.00;;;;;19.68;56.40;100070.13;2114514;27;45655;-72
2022/10/24 01:01:18;;;;;;;;;1.50;0.50;;;;;19.68;56.78;100070.13;2121229;27;45224;-72
2022/10/24 01:02:20;;;;;;;;;0.00;0.00;;;;;19.66;56.98;100059.47;2115834;27;46337;-73
2022/10/24 01:03:21;;;;;;;;;0.00;0.00;;;;;19.65;56.95;100065.81;2119178;27;46183;-73
2022/10/24 01:04:21;;;;;;;;;2.00;2.00;;;;;19.65;56.91;100073.03;2115622;27;46065;-73
2022/10/24 01:05:26;;;;;;;;;1.33;0.00;;;;;19.64;56.62;100079.38;2110641;27;45460;-75
2022/10/24 01:06:53;;;;;;;;;1.00;1.00;;;;;19.64;56.93;100077.53;2110839;27;46734;-72
2022/10/24 01:08:20;;;;;;;;;0.25;0.00;;;;;19.65;56.69;100086.47;2118457;27;47178;-74
2022/10/24 01:09:37;;;;;;;;;0.25;0.25;;;;;19.65;56.70;100086.47;2115268;27;46653;-74
2022/10/24 01:11:20;;;;;;;;;0.25;0.25;;;;;19.64;57.02;100088.31;2119693;27;45685;-74
2022/10/24 01:12:51;;;;;;;;;1.75;0.00;;;;;19.65;56.90;100076.56;2116341;27;45881;-74
2022/10/24 01:14:10;;;;;;;;;1.00;1.00;;;;;19.65;56.81;100078.41;2119174;27;46906;-71
2022/10/24 01:15:22;;;;;;;;;3.25;0.75;;;;;19.64;57.09;100082.06;2120220;27;46799;-72
2022/10/24 01:16:48;;;;;;;;;0.00;0.00;;;;;19.64;57.14;100087.47;2091021;28;46507;-74
2022/10/24 01:18:02;;;;;;;;;0.00;0.00;;;;;19.63;57.29;100094.66;2095646;28;45618;-73
2022/10/24 01:19:35;;;;;;;;;1.25;1.00;;;;;19.63;57.05;100097.38;2097513;28;46008;-75
2022/10/24 01:20:53;;;;;;;;;0.00;0.00;;;;;19.63;57.55;100097.38;2094878;28;45822;-71
2022/10/24 01:22:03;;;;;;;;;1.50;0.00;;;;;19.62;57.50;100106.41;2095279;28;46376;-72
2022/10/24 01:23:36;;;;;;;;;1.00;0.00;;;;;19.62;57.42;100122.56;2094280;28;46479;-71
2022/10/24 01:24:36;;;;;;;;;0.00;0.00;;;;;19.61;57.61;100110.06;2088325;28;46644;-73
2022/10/24 01:25:48;;;;;;;;;0.00;0.00;;;;;19.61;57.09;100112.75;2096740;28;45798;-71
2022/10/24 01:27:26;;;;;;;;;1.00;0.25;;;;;19.63;57.16;100112.66;2095518;28;46619;-73
2022/10/24 01:28:43;;;;;;;;;0.25;0.25;;;;;19.63;57.23;100118.91;2101900;28;47103;-71
2022/10/24 01:30:19;;;;;;;;;0.25;0.00;;;;;19.66;57.57;100124.06;2095013;28;46086;-71
2022/10/24 01:31:36;;;;;;;;;2.00;0.00;;;;;19.69;57.38;100122.97;2079844;28;45549;-73
2022/10/24 01:32:36;;;;;;;;;0.50;0.00;;;;;19.72;57.41;100124.63;2078806;28;46324;-71
2022/10/24 01:33:43;;;;;;;;;0.00;0.00;;;;;19.72;57.30;100124.63;2077710;28;45938;-73
2022/10/24 01:35:07;;;;;;;;;0.75;0.25;;;;;19.72;56.99;100127.31;2079150;28;45805;-72
2022/10/24 01:36:15;;;;;;;;;0.75;0.75;;;;;19.74;56.95;100126.25;2061823;28;46212;-73
2022/10/24 01:37:33;;;;;;;;;1.00;1.00;;;;;19.75;57.67;100114.50;2061766;28;48693;-72
2022/10/24 01:38:42;;;;;;;;;1.00;1.00;;;;;19.76;57.13;100132.38;2062505;28;46612;-73
2022/10/24 01:39:55;;;;;;;;;0.00;0.00;;;;;19.76;56.96;100121.59;2054969;28;47037;-72
2022/10/24 01:41:06;;;;;;;;;0.25;0.25;;;;;19.75;57.70;100113.63;2038004;28;46116;-73
2022/10/24 01:42:09;;;;;;;;;0.00;0.00;;;;;19.74;57.24;100126.25;2041875;28;46645;-73
2022/10/24 01:43:13;;;;;;;;;0.25;0.25;;;;;19.74;57.23;100114.59;2062129;28;45894;-73
2022/10/24 01:44:23;;;;;;;;;0.00;0.00;;;;;19.73;57.06;100120.97;2058159;28;47168;-72
2022/10/24 01:45:30;;;;;;;;;0.00;0.00;;;;;19.71;57.53;100115.69;2061410;28;46154;-73
2022/10/24 01:46:34;;;;;;;;;1.25;0.25;;;;;19.72;57.36;100124.63;2057842;28;46035;-72
2022/10/24 01:47:42;;;;;;;;;0.00;0.00;;;;;19.71;57.71;100115.69;2057974;28;46171;-73
2022/10/24 01:48:48;;;;;;;;;0.25;0.25;;;;;19.70;57.91;100108.59;2062525;28;45663;-73
2022/10/24 01:49:55;;;;;;;;;1.00;0.00;;;;;19.69;57.65;100123.88;2061649;28;46712;-73
2022/10/24 01:50:59;;;;;;;;;0.25;0.00;;;;;19.68;58.10;100121.25;2054184;28;46738;-72
2022/10/24 01:52:06;;;;;;;;;1.00;1.00;;;;;19.66;57.98;100121.38;2046402;28;46647;-72
2022/10/24 01:53:09;;;;;;;;;0.50;0.00;;;;;19.67;57.90;100117.72;2061708;28;45874;-73
2022/10/24 01:54:12;;;;;;;;;3.50;1.00;;;;;19.66;57.35;100115.97;2064116;28;47098;-72
2022/10/24 01:55:12;;;;;;;;;2.50;0.25;;;;;19.65;57.60;100105.31;2086396;28;46410;-73
2022/10/24 01:56:13;;;;;;;;;2.00;2.00;;;;;19.65;58.00;100116.94;2077769;28;46304;-73
2022/10/24 01:57:14;;;;;;;;;2.67;1.00;;;;;19.63;57.54;100116.19;2078433;28;45823;-72
2022/10/24 01:58:14;;;;;;;;;1.50;0.25;;;;;19.62;57.93;100109.09;2086440;28;47158;-72
2022/10/24 01:59:27;;;;;;;;;1.00;0.00;;;;;19.62;57.80;100109.09;2085502;28;46357;-72
2022/10/24 02:00:27;;;;;;;;;0.00;0.00;;;;;19.61;57.62;100114.59;2087079;28;45351;-73
2022/10/24 02:01:28;;;;;;;;;2.00;0.33;;;;;19.59;57.78;100112.00;2086255;28;45723;-73
2022/10/24 02:02:41;;;;;;;;;0.00;0.00;;;;;19.59;58.18;100106.63;2086575;28;46236;-73
2022/10/24 02:03:47;;;;;;;;;0.00;0.00;;;;;19.57;58.35;100111.25;2086365;28;46725;-72
2022/10/24 02:04:51;;;;;;;;;0.50;0.50;;;;;19.57;58.38;100111.25;2084781;28;45636;-73
2022/10/24 02:05:57;;;;;;;;;1.00;1.00;;;;;19.57;57.79;100113.94;2086710;28;46749;-73
2022/10/24 02:07:01;;;;;;;;;1.00;1.00;;;;;19.56;58.15;100114.03;2086839;28;45965;-72
2022/10/24 02:08:07;;;;;;;;;1.00;0.00;;;;;19.55;58.02;100112.31;2086699;28;47524;-73
2022/10/24 02:09:16;;;;;;;;;0.00;0.00;;;;;19.53;57.83;100107.00;2080358;28;46400;-73
2022/10/24 02:10:26;;;;;;;;;0.25;0.25;;;;;19.55;57.88;100104.22;2078095;28;46495;-73
2022/10/24 02:11:26;;;;;;;;;0.75;0.50;;;;;19.54;58.12;100111.41;2078553;28;46391;-71
2022/10/24 02:12:28;;;;;;;;;3.67;0.67;;;;;19.55;58.33;100113.16;2078183;28;45937;-72
2022/10/24 02:13:49;;;;;;;;;1.25;0.00;;;;;19.55;57.88;100104.22;2076355;27;45872;-72
2022/10/24 02:14:55;;;;;;;;;0.75;0.75;;;;;19.56;57.74;100114.03;2117054;27;47089;-73
2022/10/24 02:15:58;;;;;;;;;2.25;1.00;;;;;19.55;58.13;100107.78;2117128;27;45680;-72
2022/10/24 02:17:01;;;;;;;;;1.25;0.00;;;;;19.55;57.69;100107.78;2112992;27;46555;-73
2022/10/24 02:18:01;;;;;;;;;1.00;0.00;;;;;19.55;57.90;100105.09;2115125;27;47462;-73
2022/10/24 02:19:02;;;;;;;;;0.00;0.00;;;;;19.53;58.11;100098.91;2119239;27;46428;-72
2022/10/24 02:20:02;;;;;;;;;0.00;0.00;;;;;19.54;58.29;100108.72;2113273;27;45801;-73
2022/10/24 02:21:16;;;;;;;;;2.00;0.33;;;;;19.54;58.14;100106.03;2119696;27;46705;-72
2022/10/24 02:22:27;;;;;;;;;0.25;0.25;;;;;19.54;58.02;100100.66;2116176;27;45196;-72
2022/10/24 02:23:46;;;;;;;;;0.75;0.75;;;;;19.53;57.95;100095.38;2115160;27;45905;-73
2022/10/24 02:25:01;;;;;;;;;0.00;0.00;;;;;19.52;58.29;100088.25;2119075;27;45343;-72
2022/10/24 02:26:08;;;;;;;;;0.50;0.50;;;;;19.51;58.00;100091.94;2123363;27;48079;-73
2022/10/24 02:27:13;;;;;;;;;0.75;0.75;;;;;19.49;58.27;100101.94;2118867;27;46118;-73
2022/10/24 02:28:18;;;;;;;;;1.00;0.00;;;;;19.49;58.19;100083.09;2123288;27;45834;-72
2022/10/24 02:29:41;;;;;;;;;0.25;0.25;;;;;19.46;58.33;100081.50;2122803;27;47334;-71
2022/10/24 02:30:49;;;;;;;;;1.25;1.00;;;;;19.45;58.47;100076.22;2123102;27;45606;-74
2022/10/24 02:31:55;;;;;;;;;1.75;1.75;;;;;19.46;58.13;100083.31;2113260;27;45747;-71
2022/10/24 02:32:58;;;;;;;;;0.75;0.00;;;;;19.42;58.67;100078.13;2106639;27;46556;-71
2022/10/24 02:34:01;;;;;;;;;1.25;1.00;;;;;19.41;58.10;100073.72;2120937;27;46983;-72
2022/10/24 02:35:05;;;;;;;;;1.00;0.50;;;;;19.41;58.63;100083.63;2123047;27;46097;-74
2022/10/24 02:36:11;;;;;;;;;2.00;0.00;;;;;19.42;58.52;100079.94;2118727;27;47547;-73
2022/10/24 02:37:12;;;;;;;;;0.00;0.00;;;;;19.40;58.59;100074.69;2115523;27;46551;-71
2022/10/24 02:38:25;;;;;;;;;0.25;0.25;;;;;19.40;58.43;100077.38;2117699;27;46325;-72
2022/10/24 02:39:27;;;;;;;;;1.00;0.25;;;;;19.40;58.67;100068.44;2116670;27;46428;-72
2022/10/24 02:40:28;;;;;;;;;0.00;0.00;;;;;19.40;58.39;100071.13;2118288;27;46180;-73
2022/10/24 02:41:32;;;;;;;;;0.25;0.25;;;;;19.39;58.42;100072.97;2114485;27;46502;-71
2022/10/24 02:42:34;;;;;;;;;0.00;0.00;;;;;19.38;58.48;100068.53;2121091;27;46669;-74
2022/10/24 02:43:37;;;;;;;;;2.50;1.00;;;;;19.37;58.86;100074.03;2118522;27;45705;-72
2022/10/24 02:44:40;;;;;;;;;0.75;0.75;;;;;19.37;58.70;100065.97;2122339;27;46590;-72
2022/10/24 02:45:40;;;;;;;;;4.00;1.75;;;;;19.37;58.94;100063.28;2116407;27;45949;-73
2022/10/24 02:46:43;;;;;;;;;0.00;0.00;;;;;19.37;58.36;100058.75;2116024;27;46446;-72
2022/10/24 02:47:45;;;;;;;;;0.75;0.75;;;;;19.37;58.42;100066.81;2118657;27;45803;-72
2022/10/24 02:48:52;;;;;;;;;1.75;0.75;;;;;19.37;58.97;100068.66;2117470;27;46030;-71
2022/10/24 02:49:52;;;;;;;;;2.00;0.75;;;;;19.37;58.56;100071.34;2115243;27;45322;-72
2022/10/24 02:50:53;;;;;;;;;0.00;0.00;;;;;19.36;58.48;100070.50;2119501;27;45658;-72
2022/10/24 02:51:54;;;;;;;;;0.67;0.67;;;;;19.35;59.10;100068.75;2118795;27;46014;-73
2022/10/24 02:52:54;;;;;;;;;0.00;0.00;;;;;19.33;58.50;100073.41;2119212;27;46818;-73
2022/10/24 02:53:55;;;;;;;;;1.33;0.67;;;;;19.32;58.59;100065.44;2114788;27;45001;-73
2022/10/24 02:54:56;;;;;;;;;2.50;0.25;;;;;19.32;58.75;100070.81;2117157;27;45710;-73
2022/10/24 02:55:56;;;;;;;;;2.00;1.00;;;;;19.31;59.04;100066.38;2115901;27;46009;-74
2022/10/24 02:57:02;;;;;;;;;0.00;0.00;;;;;19.30;59.17;100060.13;2123401;27;46122;-72
2022/10/24 02:58:02;;;;;;;;;1.75;1.75;;;;;19.29;59.16;100055.72;2122520;27;46118;-73
2022/10/24 02:59:02;;;;;;;;;1.00;1.00;;;;;19.29;59.37;100052.16;2121855;27;45501;-74
2022/10/24 03:00:04;;;;;;;;;2.33;2.33;;;;;19.29;59.08;100058.41;2114241;27;46625;-74
2022/10/24 03:01:04;;;;;;;;;0.75;0.75;;;;;19.29;58.99;100058.41;2100208;28;45447;-73
2022/10/24 03:02:04;;;;;;;;;0.33;0.33;;;;;19.29;59.24;100060.22;2104917;28;45935;-73
2022/10/24 03:03:05;;;;;;;;;4.00;2.33;;;;;19.28;59.27;100061.19;2120298;27;45618;-73
2022/10/24 03:04:05;;;;;;;;;0.00;0.00;;;;;19.25;58.86;100070.34;2121817;27;46449;-72
2022/10/24 03:05:06;;;;;;;;;0.00;0.00;;;;;19.23;58.81;100064.22;2105372;27;46190;-73
2022/10/24 03:06:06;;;;;;;;;3.00;0.33;;;;;19.22;59.11;100058.94;2110905;27;46015;-73
2022/10/24 03:07:07;;;;;;;;;0.00;0.00;;;;;19.21;59.18;100059.91;2122295;27;46830;-73
2022/10/24 03:08:07;;;;;;;;;3.00;1.00;;;;;19.20;59.15;100064.44;2119839;27;46647;-74
2022/10/24 03:09:07;;;;;;;;;3.67;1.00;;;;;19.20;59.08;100071.63;2119851;27;46083;-73
2022/10/24 03:10:08;;;;;;;;;2.67;0.33;;;;;19.20;59.61;100077.03;2122017;27;46561;-74
2022/10/24 03:11:08;;;;;;;;;0.33;0.33;;;;;19.19;59.06;100072.63;2116537;27;46879;-73
2022/10/24 03:12:13;;;;;;;;;1.33;1.00;;;;;19.17;59.47;100077.19;2115769;27;46183;-73
2022/10/24 03:13:14;;;;;;;;;0.00;0.00;;;;;19.16;59.62;100068.28;2118511;27;45905;-73
2022/10/24 03:14:14;;;;;;;;;0.00;0.00;;;;;19.15;59.30;100077.31;2117999;27;45424;-73
2022/10/24 03:15:15;;;;;;;;;3.00;3.00;;;;;19.14;59.15;100088.19;2122200;27;45821;-73
2022/10/24 03:16:15;;;;;;;;;0.00;0.00;;;;;19.15;59.66;100081.81;2106457;27;46460;-73
2022/10/24 03:17:16;;;;;;;;;0.33;0.00;;;;;19.15;59.39;100074.63;2113149;27;45844;-73
2022/10/24 03:18:16;;;;;;;;;0.33;0.00;;;;;19.16;59.46;100084.41;2122632;27;45547;-72
2022/10/24 03:19:16;;;;;;;;;2.00;1.00;;;;;19.16;59.80;100083.56;2116024;27;45751;-74
2022/10/24 03:20:17;;;;;;;;;1.00;1.00;;;;;19.16;59.81;100095.16;2121688;27;45857;-72
2022/10/24 03:21:17;;;;;;;;;0.00;0.00;;;;;19.14;59.44;100094.41;2112625;27;46040;-74
2022/10/24 03:22:17;;;;;;;;;3.00;2.00;;;;;19.13;59.27;100090.00;2110172;27;46798;-73
2022/10/24 03:23:18;;;;;;;;;1.67;0.00;;;;;19.13;59.78;100102.59;2122813;27;46370;-73
2022/10/24 03:24:18;;;;;;;;;0.00;0.00;;;;;19.12;59.54;100107.09;2114771;27;45964;-73
2022/10/24 03:25:18;;;;;;;;;1.67;0.67;;;;;19.12;59.74;100104.41;2106597;27;45391;-73
2022/10/24 03:26:19;;;;;;;;;1.00;1.00;;;;;19.10;59.76;100098.28;2105830;27;46539;-72
2022/10/24 03:27:20;;;;;;;;;1.00;1.00;;;;;19.09;59.32;100094.75;2113938;27;45970;-72
2022/10/24 03:28:20;;;;;;;;;2.33;1.33;;;;;19.09;59.41;100088.50;2112560;27;45868;-74
2022/10/24 03:29:20;;;;;;;;;3.00;1.00;;;;;19.07;59.88;100102.06;2121065;27;46463;-72
2022/10/24 03:30:21;;;;;;;;;1.00;1.00;;;;;19.07;59.88;100093.13;2113314;27;45521;-73
2022/10/24 03:31:21;;;;;;;;;0.67;0.67;;;;;19.06;59.68;100097.63;2113698;27;45527;-72
2022/10/24 03:32:22;;;;;;;;;1.00;0.00;;;;;19.07;59.74;100093.13;2114385;27;45963;-73
2022/10/24 03:33:22;;;;;;;;;3.00;1.00;;;;;19.07;60.04;100106.56;2114462;27;45856;-74
2022/10/24 03:34:23;;;;;;;;;1.00;0.00;;;;;19.06;59.83;100089.56;2113796;27;45011;-73
2022/10/24 03:35:23;;;;;;;;;2.67;1.33;;;;;19.04;59.67;100099.53;2115020;27;45980;-73
2022/10/24 03:36:23;;;;;;;;;2.00;0.67;;;;;19.04;59.96;100096.84;2115851;27;45399;-72
2022/10/24 03:37:24;;;;;;;;;0.00;0.00;;;;;19.04;59.79;100098.69;2118511;27;46268;-73
2022/10/24 03:38:25;;;;;;;;;1.00;1.00;;;;;19.04;60.14;100104.06;2122511;27;46473;-72
2022/10/24 03:39:25;;;;;;;;;1.00;1.00;;;;;19.05;59.65;100112.03;2115297;27;47033;-72
2022/10/24 03:40:26;;;;;;;;;0.67;0.00;;;;;19.04;59.50;100112.97;2121570;27;46219;-73
2022/10/24 03:41:27;;;;;;;;;2.00;1.50;;;;;19.03;60.22;100116.63;2120398;27;45585;-72
2022/10/24 03:42:27;;;;;;;;;0.00;0.00;;;;;19.03;59.55;100126.53;2117993;27;45566;-72
2022/10/24 03:43:27;;;;;;;;;3.67;2.33;;;;;19.01;60.21;100118.56;2118762;27;46612;-72
2022/10/24 03:44:28;;;;;;;;;3.00;1.33;;;;;19.01;59.94;100112.34;2119498;27;45609;-73
2022/10/24 03:45:28;;;;;;;;;0.33;0.33;;;;;19.00;59.83;100113.31;2106417;27;45705;-72
2022/10/24 03:46:29;;;;;;;;;1.33;0.00;;;;;19.00;60.30;100119.53;2105258;28;45225;-72
2022/10/24 03:47:29;;;;;;;;;1.67;1.33;;;;;19.00;60.03;100114.16;2113675;27;45737;-71
2022/10/24 03:48:30;;;;;;;;;2.00;0.00;;;;;18.99;60.40;100122.34;2115161;27;45193;-73
2022/10/24 03:49:31;;;;;;;;;2.00;2.00;;;;;19.00;60.21;100121.38;2118547;27;46585;-72
2022/10/24 03:50:32;;;;;;;;;0.67;0.67;;;;;19.00;60.19;100118.69;2125070;27;45960;-73
2022/10/24 03:51:32;;;;;;;;;2.00;0.25;;;;;19.00;60.57;100119.53;2123392;27;45237;-74
2022/10/24 03:52:32;;;;;;;;;1.67;1.67;;;;;18.97;60.64;100106.31;2121535;27;45670;-75
2022/10/24 03:53:33;;;;;;;;;0.00;0.00;;;;;18.97;60.17;100119.75;2116691;27;45842;-73
2022/10/24 03:54:34;;;;;;;;;0.00;0.00;;;;;18.97;60.45;100129.66;2091860;28;47423;-74
2022/10/24 03:55:34;;;;;;;;;0.25;0.00;;;;;18.97;60.36;100125.13;2096307;27;45825;-71
2022/10/24 03:56:35;;;;;;;;;3.33;1.00;;;;;18.96;60.39;100115.34;2121270;27;46817;-72
2022/10/24 03:57:36;;;;;;;;;3.00;2.00;;;;;18.95;60.52;100121.69;2116457;27;46709;-72
2022/10/24 03:58:36;;;;;;;;;3.00;2.25;;;;;18.94;60.30;100111.91;2122709;27;45834;-72
2022/10/24 03:59:37;;;;;;;;;1.00;1.00;;;;;18.93;60.47;100115.56;2121525;27;45730;-73
2022/10/24 04:00:39;;;;;;;;;1.33;1.33;;;;;18.93;60.16;100117.34;2115975;27;46227;-74
2022/10/24 04:01:39;;;;;;;;;2.50;1.00;;;;;18.92;60.29;100124.56;2114284;27;46701;-72
2022/10/24 04:02:40;;;;;;;;;0.00;0.00;;;;;18.93;60.36;100138.84;2107598;27;45610;-73
2022/10/24 04:03:40;;;;;;;;;1.00;1.00;;;;;18.93;60.32;100133.47;2110372;27;47560;-72
2022/10/24 04:04:41;;;;;;;;;1.00;1.00;;;;;18.92;60.21;100135.31;2109749;27;45962;-74
2022/10/24 04:05:41;;;;;;;;;1.00;0.00;;;;;18.93;60.50;100131.69;2119271;27;46096;-73
2022/10/24 04:06:41;;;;;;;;;3.00;2.00;;;;;18.93;60.65;100138.84;2101606;28;45222;-72
2022/10/24 04:07:42;;;;;;;;;1.67;1.00;;;;;18.94;60.51;100140.63;2099860;28;46226;-74
2022/10/24 04:08:42;;;;;;;;;1.00;0.67;;;;;18.94;60.17;100137.91;2120405;27;45922;-72
2022/10/24 04:09:43;;;;;;;;;1.00;1.00;;;;;18.96;60.94;100144.91;2121863;27;48140;-72
2022/10/24 04:10:43;;;;;;;;;2.00;1.75;;;;;18.96;60.84;100144.91;2117876;27;45871;-71
2022/10/24 04:11:44;;;;;;;;;3.00;1.00;;;;;18.95;60.14;100148.56;2121462;27;45792;-72
2022/10/24 04:12:44;;;;;;;;;0.00;0.00;;;;;18.95;60.44;100145.88;2121516;27;46286;-74
2022/10/24 04:13:44;;;;;;;;;0.33;0.33;;;;;18.95;60.30;100153.94;2114243;27;45779;-73
2022/10/24 04:14:45;;;;;;;;;2.33;1.00;;;;;18.95;60.76;100161.16;2114162;27;45811;-73
2022/10/24 04:15:45;;;;;;;;;1.67;0.33;;;;;18.94;60.85;100154.91;2120366;27;45563;-73
2022/10/24 04:16:45;;;;;;;;;6.00;3.67;;;;;18.94;60.51;100154.91;2117401;27;45860;-73
2022/10/24 04:17:46;;;;;;;;;0.00;0.00;;;;;18.95;60.56;100145.88;2122304;27;46308;-73
2022/10/24 04:18:46;;;;;;;;;1.00;1.00;;;;;18.96;60.61;100160.19;2112816;27;46471;-73
2022/10/24 04:19:47;;;;;;;;;0.33;0.33;;;;;18.96;60.84;100158.38;2110059;27;47056;-73
2022/10/24 04:20:47;;;;;;;;;1.67;1.00;;;;;18.96;61.06;100158.38;2114251;27;45845;-73
2022/10/24 04:21:47;;;;;;;;;0.00;0.00;;;;;18.97;60.79;100167.28;2116307;27;46626;-74
2022/10/24 04:22:48;;;;;;;;;0.67;0.67;;;;;18.97;60.50;100156.53;2114060;27;45907;-73
2022/10/24 04:23:48;;;;;;;;;1.00;0.00;;;;;18.99;60.64;100162.66;2120223;27;45646;-73
2022/10/24 04:24:49;;;;;;;;;1.67;0.67;;;;;18.98;60.83;100161.81;2118402;27;45557;-74
2022/10/24 04:25:49;;;;;;;;;0.33;0.00;;;;;18.99;60.42;100162.66;2115317;27;46064;-74
2022/10/24 04:26:50;;;;;;;;;4.33;2.00;;;;;18.99;60.69;100162.66;2121468;27;47759;-73
2022/10/24 04:27:50;;;;;;;;;0.67;0.00;;;;;18.98;60.84;100171.69;2119528;27;46045;-73
2022/10/24 04:28:50;;;;;;;;;0.33;0.00;;;;;18.97;60.67;100167.28;2111161;27;45997;-73
2022/10/24 04:29:51;;;;;;;;;0.67;0.33;;;;;18.96;60.72;100170.94;2105919;27;45608;-73
2022/10/24 04:30:55;;;;;;;;;0.00;0.00;;;;;18.96;60.90;100171.81;2118090;27;45832;-72
2022/10/24 04:31:56;;;;;;;;;1.75;0.50;;;;;18.95;60.97;100177.28;2118114;27;45677;-74
2022/10/24 04:32:56;;;;;;;;;0.67;0.67;;;;;18.93;60.73;100174.69;2117463;27;46339;-73
2022/10/24 04:33:57;;;;;;;;;3.00;2.00;;;;;18.92;60.94;100175.63;2114470;27;45633;-73
2022/10/24 04:34:57;;;;;;;;;3.00;0.67;;;;;18.91;61.03;100198.09;2118439;27;45232;-75
2022/10/24 04:35:57;;;;;;;;;0.67;0.00;;;;;18.90;61.14;100182.94;2120955;27;45649;-73
2022/10/24 04:36:58;;;;;;;;;4.67;2.00;;;;;18.89;60.61;100177.66;2115236;27;46748;-75
2022/10/24 04:37:58;;;;;;;;;0.00;0.00;;;;;18.87;60.33;100183.16;2114024;27;46485;-74
2022/10/24 04:38:58;;;;;;;;;0.00;0.00;;;;;18.87;60.87;100182.28;2117081;27;45981;-74
2022/10/24 04:39:59;;;;;;;;;0.00;0.00;;;;;18.85;60.88;100185.06;2122203;27;45839;-74
2022/10/24 04:40:59;;;;;;;;;1.33;1.33;;;;;18.84;60.41;100183.34;2121437;27;46110;-74
2022/10/24 04:42:00;;;;;;;;;1.00;1.00;;;;;18.84;60.67;100180.66;2122499;27;46022;-72
2022/10/24 04:43:00;;;;;;;;;0.33;0.33;;;;;18.83;60.70;100194.22;2121742;27;45966;-73
2022/10/24 04:44:00;;;;;;;;;2.33;1.00;;;;;18.84;60.82;100194.09;2121176;27;46615;-72
2022/10/24 04:45:00;;;;;;;;;3.33;1.33;;;;;18.81;61.36;100191.63;2122042;27;46308;-73
2022/10/24 04:46:01;;;;;;;;;1.67;1.67;;;;;18.81;60.97;100191.63;2115437;27;45683;-72
2022/10/24 04:47:01;;;;;;;;;1.00;1.00;;;;;18.81;61.10;100192.47;2113763;27;46322;-73
2022/10/24 04:48:02;;;;;;;;;1.00;0.33;;;;;18.81;60.98;100200.56;2113810;27;46438;-73
2022/10/24 04:49:03;;;;;;;;;1.33;0.00;;;;;18.82;61.31;100193.34;2117436;27;45495;-73
2022/10/24 04:50:04;;;;;;;;;0.75;0.75;;;;;18.83;61.42;100200.44;2112170;27;48219;-72
2022/10/24 04:51:05;;;;;;;;;1.00;0.00;;;;;18.83;61.21;100203.13;2102583;28;46736;-74
2022/10/24 04:52:05;;;;;;;;;1.00;0.00;;;;;18.83;60.89;100207.66;2101535;28;46605;-74
2022/10/24 04:53:05;;;;;;;;;1.00;1.00;;;;;18.83;60.81;100202.28;2121090;27;45578;-73
2022/10/24 04:54:07;;;;;;;;;2.33;2.33;;;;;18.82;60.96;100209.47;2115940;27;45233;-74
2022/10/24 04:55:07;;;;;;;;;2.25;2.25;;;;;18.81;61.02;100189.78;2111131;27;46912;-73
2022/10/24 04:56:08;;;;;;;;;1.67;1.67;;;;;18.80;61.47;100197.94;2108079;27;45804;-74